Coca, El Coca Francisco de Orellana Airport (SECO)

NameEl Coca Francisco de Orellana Airport
CityCoca
CountryEcuador
ICAOSECO
IATAOCC
Altitude254 m
CoordinatesGoogle Map
Live Air TrafficLiveATC.net
METARSECO 162300Z 29004KT 9999 FEW030 SCT100 27/23 Q1010 RMK A2984
2019-02-16 23:00:00 Wind: West (290°) 2.06 m/s - Visibility: > 10000 m - Temperature: 27 °C - Dew point: 23 °C - Humidity: 78.8% - Pressure: 1010 hPa

Sorry, no flights used the airport in this database.